sensor_id;sensor_type;location;lat;lon;timestamp;pressure;altitude;pressure_sealevel;temperature;humidity
54266;BME280;40836;39.770;2.714;2022-07-23T00:01:18;101546.63;;;27.82;52.94
54266;BME280;40836;39.770;2.714;2022-07-23T00:03:44;101543.88;;;27.82;52.09
54266;BME280;40836;39.770;2.714;2022-07-23T00:06:10;101548.63;;;27.85;51.38
54266;BME280;40836;39.770;2.714;2022-07-23T00:08:35;101540.72;;;27.91;51.17
54266;BME280;40836;39.770;2.714;2022-07-23T00:11:01;101541.88;;;27.94;51.64
54266;BME280;40836;39.770;2.714;2022-07-23T00:13:27;101551.81;;;27.95;51.42
54266;BME280;40836;39.770;2.714;2022-07-23T00:15:52;101551.81;;;27.95;51.30
54266;BME280;40836;39.770;2.714;2022-07-23T00:18:18;101536.75;;;27.88;51.07
54266;BME280;40836;39.770;2.714;2022-07-23T00:20:44;101549.03;;;27.95;51.02
54266;BME280;40836;39.770;2.714;2022-07-23T00:23:09;101549.41;;;27.97;50.58
54266;BME280;40836;39.770;2.714;2022-07-23T00:25:35;101547.03;;;27.99;50.77
54266;BME280;40836;39.770;2.714;2022-07-23T00:28:01;101550.59;;;27.99;49.82
54266;BME280;40836;39.770;2.714;2022-07-23T00:30:28;101539.53;;;27.92;49.83
54266;BME280;40836;39.770;2.714;2022-07-23T00:32:58;101550.22;;;28.01;50.12
54266;BME280;40836;39.770;2.714;2022-07-23T00:35:26;101556.16;;;27.99;50.18
54266;BME280;40836;39.770;2.714;2022-07-23T00:37:53;101559.72;;;27.96;50.43
54266;BME280;40836;39.770;2.714;2022-07-23T00:40:18;101558.50;;;27.83;50.99
54266;BME280;40836;39.770;2.714;2022-07-23T00:42:44;101531.13;;;27.53;51.95
54266;BME280;40836;39.770;2.714;2022-07-23T00:45:09;101556.44;;;27.58;52.39
54266;BME280;40836;39.770;2.714;2022-07-23T00:47:35;101567.91;;;27.46;52.57
54266;BME280;40836;39.770;2.714;2022-07-23T00:50:02;101569.44;;;27.29;53.13
54266;BME280;40836;39.770;2.714;2022-07-23T00:52:28;101568.63;;;27.25;53.19
54266;BME280;40836;39.770;2.714;2022-07-23T00:54:54;101572.56;;;27.13;53.35
54266;BME280;40836;39.770;2.714;2022-07-23T00:57:20;101572.91;;;27.12;53.09
54266;BME280;40836;39.770;2.714;2022-07-23T00:59:46;101554.91;;;26.77;53.83
54266;BME280;40836;39.770;2.714;2022-07-23T01:02:11;101582.69;;;26.91;54.19
54266;BME280;40836;39.770;2.714;2022-07-23T01:04:37;101571.16;;;26.79;53.86
54266;BME280;40836;39.770;2.714;2022-07-23T01:07:02;101582.25;;;26.82;55.26
54266;BME280;40836;39.770;2.714;2022-07-23T01:09:28;101577.47;;;26.75;55.43
54266;BME280;40836;39.770;2.714;2022-07-23T01:11:54;101580.22;;;26.72;55.39
54266;BME280;40836;39.770;2.714;2022-07-23T01:14:20;101583.38;;;26.74;55.03
54266;BME280;40836;39.770;2.714;2022-07-23T01:16:48;101585.75;;;26.75;54.95
54266;BME280;40836;39.770;2.714;2022-07-23T01:19:14;101581.44;;;26.82;55.11
54266;BME280;40836;39.770;2.714;2022-07-23T01:21:42;101562.44;;;26.76;54.73
54266;BME280;40836;39.770;2.714;2022-07-23T01:24:08;101566.06;;;26.84;55.09
54266;BME280;40836;39.770;2.714;2022-07-23T01:26:34;101570.78;;;26.87;54.38
54266;BME280;40836;39.770;2.714;2022-07-23T01:29:00;101566.06;;;26.88;53.94
54266;BME280;40836;39.770;2.714;2022-07-23T01:31:26;101567.63;;;26.82;53.50
54266;BME280;40836;39.770;2.714;2022-07-23T01:33:51;101565.63;;;26.79;54.07
54266;BME280;40836;39.770;2.714;2022-07-23T01:36:17;101562.03;;;26.74;53.66
54266;BME280;40836;39.770;2.714;2022-07-23T01:38:42;101564.75;;;26.71;54.83
54266;BME280;40836;39.770;2.714;2022-07-23T01:41:08;101551.66;;;26.61;54.93
54266;BME280;40836;39.770;2.714;2022-07-23T01:43:33;101554.78;;;26.52;55.17
54266;BME280;40836;39.770;2.714;2022-07-23T01:45:59;101559.06;;;26.46;55.59
54266;BME280;40836;39.770;2.714;2022-07-23T01:48:24;101555.84;;;26.37;56.33
54266;BME280;40836;39.770;2.714;2022-07-23T01:50:50;101549.81;;;26.24;56.86
54266;BME280;40836;39.770;2.714;2022-07-23T01:53:16;101560.88;;;26.24;57.41
54266;BME280;40836;39.770;2.714;2022-07-23T01:55:42;101557.66;;;26.18;57.66
54266;BME280;40836;39.770;2.714;2022-07-23T01:58:07;101557.59;;;26.08;57.86
54266;BME280;40836;39.770;2.714;2022-07-23T02:00:34;101553.19;;;26.03;58.77
54266;BME280;40836;39.770;2.714;2022-07-23T02:02:59;101553.91;;;25.96;58.66
54266;BME280;40836;39.770;2.714;2022-07-23T02:05:25;101548.00;;;25.94;59.36
54266;BME280;40836;39.770;2.714;2022-07-23T02:07:51;101554.63;;;25.86;59.32
54266;BME280;40836;39.770;2.714;2022-07-23T02:10:17;101560.19;;;25.93;59.38
54266;BME280;40836;39.770;2.714;2022-07-23T02:12:43;101555.88;;;25.96;59.92
54266;BME280;40836;39.770;2.714;2022-07-23T02:15:08;101550.31;;;25.89;60.06
54266;BME280;40836;39.770;2.714;2022-07-23T02:17:34;101550.78;;;25.98;59.69
54266;BME280;40836;39.770;2.714;2022-07-23T02:19:59;101554.38;;;26.02;59.53
54266;BME280;40836;39.770;2.714;2022-07-23T02:22:25;101547.34;;;26.12;58.03
54266;BME280;40836;39.770;2.714;2022-07-23T02:24:50;101551.34;;;26.18;57.70
54266;BME280;40836;39.770;2.714;2022-07-23T02:27:16;101554.06;;;26.14;57.85
54266;BME280;40836;39.770;2.714;2022-07-23T02:29:41;101542.22;;;26.10;57.50
54266;BME280;40836;39.770;2.714;2022-07-23T02:32:07;101550.06;;;26.08;57.94
54266;BME280;40836;39.770;2.714;2022-07-23T02:34:32;101554.38;;;26.02;58.54
54266;BME280;40836;39.770;2.714;2022-07-23T02:36:58;101546.84;;;25.99;58.82
54266;BME280;40836;39.770;2.714;2022-07-23T02:39:23;101547.19;;;25.94;59.08
54266;BME280;40836;39.770;2.714;2022-07-23T02:41:49;101548.69;;;25.84;59.02
54266;BME280;40836;39.770;2.714;2022-07-23T02:44:14;101545.03;;;25.76;59.60
54266;BME280;40836;39.770;2.714;2022-07-23T02:46:40;101544.63;;;25.74;59.74
54266;BME280;40836;39.770;2.714;2022-07-23T02:49:05;101538.97;;;25.64;60.54
54266;BME280;40836;39.770;2.714;2022-07-23T02:51:30;101539.72;;;25.60;60.33
54266;BME280;40836;39.770;2.714;2022-07-23T02:53:56;101520.72;;;25.52;60.42
54266;BME280;40836;39.770;2.714;2022-07-23T02:56:22;101531.88;;;25.63;60.59
54266;BME280;40836;39.770;2.714;2022-07-23T02:58:47;101535.91;;;25.72;59.72
54266;BME280;40836;39.770;2.714;2022-07-23T03:01:12;101527.19;;;25.70;59.44
54266;BME280;40836;39.770;2.714;2022-07-23T03:03:38;101535.06;;;25.65;59.42
54266;BME280;40836;39.770;2.714;2022-07-23T03:06:04;101527.84;;;25.56;59.63
54266;BME280;40836;39.770;2.714;2022-07-23T03:08:29;101520.59;;;25.41;59.96
54266;BME280;40836;39.770;2.714;2022-07-23T03:10:55;101528.53;;;25.46;60.09
54266;BME280;40836;39.770;2.714;2022-07-23T03:13:20;101524.03;;;25.31;59.92
54266;BME280;40836;39.770;2.714;2022-07-23T03:15:46;101524.81;;;25.31;60.17
54266;BME280;40836;39.770;2.714;2022-07-23T03:18:12;101534.59;;;25.25;60.79
54266;BME280;40836;39.770;2.714;2022-07-23T03:20:37;101520.69;;;25.14;61.36
54266;BME280;40836;39.770;2.714;2022-07-23T03:23:03;101524.25;;;25.15;61.40
54266;BME280;40836;39.770;2.714;2022-07-23T03:25:28;101525.28;;;25.03;62.00
54266;BME280;40836;39.770;2.714;2022-07-23T03:27:54;101526.84;;;25.04;61.82
54266;BME280;40836;39.770;2.714;2022-07-23T03:30:19;101514.41;;;24.87;62.38
54266;BME280;40836;39.770;2.714;2022-07-23T03:32:45;101522.81;;;24.98;62.42
54266;BME280;40836;39.770;2.714;2022-07-23T03:35:10;101516.00;;;24.88;62.93
54266;BME280;40836;39.770;2.714;2022-07-23T03:37:36;101504.84;;;24.78;62.92
54266;BME280;40836;39.770;2.714;2022-07-23T03:40:01;101517.50;;;24.82;63.07
54266;BME280;40836;39.770;2.714;2022-07-23T03:42:27;101507.13;;;24.72;62.72
54266;BME280;40836;39.770;2.714;2022-07-23T03:44:53;101519.81;;;24.80;63.38
54266;BME280;40836;39.770;2.714;2022-07-23T03:47:18;101478.00;;;24.48;62.91
54266;BME280;40836;39.770;2.714;2022-07-23T03:49:47;101526.78;;;24.71;63.36
54266;BME280;40836;39.770;2.714;2022-07-23T03:52:13;101534.22;;;24.66;63.20
54266;BME280;40836;39.770;2.714;2022-07-23T03:54:38;101535.41;;;24.65;63.38
54266;BME280;40836;39.770;2.714;2022-07-23T03:57:04;101531.47;;;24.66;63.77
54266;BME280;40836;39.770;2.714;2022-07-23T03:59:30;101532.22;;;24.63;63.33
54266;BME280;40836;39.770;2.714;2022-07-23T04:01:55;101536.13;;;24.62;63.71
54266;BME280;40836;39.770;2.714;2022-07-23T04:04:20;101528.59;;;24.59;62.84
54266;BME280;40836;39.770;2.714;2022-07-23T04:06:46;101534.69;;;24.72;62.81
54266;BME280;40836;39.770;2.714;2022-07-23T04:09:12;101540.75;;;24.81;62.16
54266;BME280;40836;39.770;2.714;2022-07-23T04:11:37;101533.34;;;24.89;61.77
54266;BME280;40836;39.770;2.714;2022-07-23T04:14:03;101522.25;;;24.85;60.86
54266;BME280;40836;39.770;2.714;2022-07-23T04:16:28;101536.38;;;24.80;60.08
54266;BME280;40836;39.770;2.714;2022-07-23T04:18:56;101521.78;;;24.80;59.59
54266;BME280;40836;39.770;2.714;2022-07-23T04:21:23;101539.25;;;24.87;59.62
54266;BME280;40836;39.770;2.714;2022-07-23T04:23:48;101546.34;;;24.88;59.99
54266;BME280;40836;39.770;2.714;2022-07-23T04:26:14;101552.84;;;24.73;60.27
54266;BME280;40836;39.770;2.714;2022-07-23T04:28:39;101563.13;;;24.76;59.63
54266;BME280;40836;39.770;2.714;2022-07-23T04:31:05;101561.09;;;24.73;59.07
54266;BME280;40836;39.770;2.714;2022-07-23T04:33:30;101558.28;;;24.70;60.26
54266;BME280;40836;39.770;2.714;2022-07-23T04:35:56;101541.50;;;24.52;60.17
54266;BME280;40836;39.770;2.714;2022-07-23T04:38:21;101561.22;;;24.54;60.25
54266;BME280;40836;39.770;2.714;2022-07-23T04:40:47;101563.03;;;24.42;60.58
54266;BME280;40836;39.770;2.714;2022-07-23T04:43:12;101561.41;;;24.41;60.40
54266;BME280;40836;39.770;2.714;2022-07-23T04:45:38;101548.63;;;24.30;60.64
54266;BME280;40836;39.770;2.714;2022-07-23T04:48:04;101556.00;;;24.26;60.99
54266;BME280;40836;39.770;2.714;2022-07-23T04:50:29;101563.63;;;24.32;60.95
54266;BME280;40836;39.770;2.714;2022-07-23T04:52:55;101553.63;;;24.24;60.90
54266;BME280;40836;39.770;2.714;2022-07-23T04:55:20;101544.88;;;24.18;60.90
54266;BME280;40836;39.770;2.714;2022-07-23T04:57:46;101551.31;;;24.26;60.82
54266;BME280;40836;39.770;2.714;2022-07-23T05:00:11;101540.28;;;24.26;61.05
54266;BME280;40836;39.770;2.714;2022-07-23T05:02:37;101559.44;;;24.19;61.51
54266;BME280;40836;39.770;2.714;2022-07-23T05:05:03;101554.03;;;24.23;61.09
54266;BME280;40836;39.770;2.714;2022-07-23T05:07:28;101560.31;;;24.23;61.32
54266;BME280;40836;39.770;2.714;2022-07-23T05:09:54;101550.38;;;24.18;61.79
54266;BME280;40836;39.770;2.714;2022-07-23T05:12:19;101547.09;;;24.09;62.04
54266;BME280;40836;39.770;2.714;2022-07-23T05:14:44;101560.69;;;24.21;62.36
54266;BME280;40836;39.770;2.714;2022-07-23T05:17:10;101542.84;;;24.15;61.86
54266;BME280;40836;39.770;2.714;2022-07-23T05:19:35;101550.78;;;24.17;62.17
54266;BME280;40836;39.770;2.714;2022-07-23T05:22:01;101552.00;;;24.19;62.58
54266;BME280;40836;39.770;2.714;2022-07-23T05:26:52;101559.66;;;24.30;62.18
54266;BME280;40836;39.770;2.714;2022-07-23T05:29:18;101558.78;;;24.26;62.35
54266;BME280;40836;39.770;2.714;2022-07-23T05:31:43;101561.66;;;24.33;61.87
54266;BME280;40836;39.770;2.714;2022-07-23T05:34:09;101538.22;;;24.19;62.27
54266;BME280;40836;39.770;2.714;2022-07-23T05:36:35;101560.94;;;24.36;62.53
54266;BME280;40836;39.770;2.714;2022-07-23T05:39:00;101548.97;;;24.28;62.63
54266;BME280;40836;39.770;2.714;2022-07-23T05:41:26;101559.00;;;24.40;62.08
54266;BME280;40836;39.770;2.714;2022-07-23T05:43:51;101560.28;;;24.42;61.54
54266;BME280;40836;39.770;2.714;2022-07-23T05:46:17;101554.81;;;24.46;61.07
54266;BME280;40836;39.770;2.714;2022-07-23T05:48:42;101556.03;;;24.49;61.40
54266;BME280;40836;39.770;2.714;2022-07-23T05:51:08;101567.25;;;24.63;61.20
54266;BME280;40836;39.770;2.714;2022-07-23T05:53:35;101561.16;;;24.77;60.89
54266;BME280;40836;39.770;2.714;2022-07-23T05:56:01;101566.44;;;24.89;60.89
54266;BME280;40836;39.770;2.714;2022-07-23T05:58:27;101555.47;;;24.92;60.01
54266;BME280;40836;39.770;2.714;2022-07-23T06:00:52;101566.44;;;25.16;58.37
54266;BME280;40836;39.770;2.714;2022-07-23T06:03:18;101574.50;;;25.31;58.47
54266;BME280;40836;39.770;2.714;2022-07-23T06:05:43;101562.31;;;25.32;57.40
54266;BME280;40836;39.770;2.714;2022-07-23T06:08:09;101573.94;;;25.49;57.76
54266;BME280;40836;39.770;2.714;2022-07-23T06:10:34;101559.91;;;25.65;57.22
54266;BME280;40836;39.770;2.714;2022-07-23T06:13:00;101566.31;;;25.76;56.59
54266;BME280;40836;39.770;2.714;2022-07-23T06:15:25;101570.09;;;25.94;54.86
54266;BME280;40836;39.770;2.714;2022-07-23T06:17:51;101572.63;;;26.10;54.42
54266;BME280;40836;39.770;2.714;2022-07-23T06:20:16;101579.94;;;26.36;53.24
54266;BME280;40836;39.770;2.714;2022-07-23T06:22:42;101572.97;;;26.53;49.59
54266;BME280;40836;39.770;2.714;2022-07-23T06:25:07;101580.97;;;26.69;47.33
54266;BME280;40836;39.770;2.714;2022-07-23T06:27:33;101587.44;;;26.91;47.80
54266;BME280;40836;39.770;2.714;2022-07-23T06:29:59;101579.63;;;27.07;46.64
54266;BME280;40836;39.770;2.714;2022-07-23T06:32:24;101585.25;;;27.32;47.14
54266;BME280;40836;39.770;2.714;2022-07-23T06:34:49;101586.47;;;27.42;45.36
54266;BME280;40836;39.770;2.714;2022-07-23T06:37:15;101590.09;;;27.57;43.86
54266;BME280;40836;39.770;2.714;2022-07-23T06:39:41;101590.19;;;27.78;44.27
54266;BME280;40836;39.770;2.714;2022-07-23T06:42:06;101590.63;;;27.95;43.73
54266;BME280;40836;39.770;2.714;2022-07-23T06:44:32;101587.47;;;28.10;43.08
54266;BME280;40836;39.770;2.714;2022-07-23T06:46:57;101579.13;;;28.25;43.38
54266;BME280;40836;39.770;2.714;2022-07-23T06:49:23;101586.66;;;28.42;42.83
54266;BME280;40836;39.770;2.714;2022-07-23T06:51:48;101583.47;;;28.58;41.62
54266;BME280;40836;39.770;2.714;2022-07-23T06:54:14;101591.00;;;28.75;40.15
54266;BME280;40836;39.770;2.714;2022-07-23T06:56:39;101578.63;;;28.91;41.70
54266;BME280;40836;39.770;2.714;2022-07-23T06:59:05;101581.41;;;29.05;41.28
54266;BME280;40836;39.770;2.714;2022-07-23T07:01:30;101578.56;;;29.23;40.96
54266;BME280;40836;39.770;2.714;2022-07-23T07:03:56;101576.09;;;29.36;40.19
54266;BME280;40836;39.770;2.714;2022-07-23T07:06:21;101575.25;;;29.53;40.35
54266;BME280;40836;39.770;2.714;2022-07-23T07:08:47;101575.19;;;29.64;39.32
54266;BME280;40836;39.770;2.714;2022-07-23T07:11:12;101570.34;;;29.79;38.79
54266;BME280;40836;39.770;2.714;2022-07-23T07:13:38;101568.22;;;29.93;39.59
54266;BME280;40836;39.770;2.714;2022-07-23T07:16:04;101571.72;;;30.08;37.71
54266;BME280;40836;39.770;2.714;2022-07-23T07:18:30;101570.44;;;30.24;36.09
54266;BME280;40836;39.770;2.714;2022-07-23T07:20:57;101571.44;;;30.40;37.29
54266;BME280;40836;39.770;2.714;2022-07-23T07:23:23;101578.09;;;30.54;36.38
54266;BME280;40836;39.770;2.714;2022-07-23T07:25:48;101574.78;;;30.66;38.21
54266;BME280;40836;39.770;2.714;2022-07-23T07:28:14;101576.25;;;30.78;38.77
54266;BME280;40836;39.770;2.714;2022-07-23T07:30:39;101576.16;;;30.88;37.23
54266;BME280;40836;39.770;2.714;2022-07-23T07:33:05;101571.13;;;31.07;38.17
54266;BME280;40836;39.770;2.714;2022-07-23T07:35:30;101580.63;;;31.13;38.14
54266;BME280;40836;39.770;2.714;2022-07-23T07:37:59;101577.72;;;31.24;36.54
54266;BME280;40836;39.770;2.714;2022-07-23T07:40:26;101585.13;;;31.37;35.42
54266;BME280;40836;39.770;2.714;2022-07-23T07:42:53;101584.59;;;31.46;35.73
54266;BME280;40836;39.770;2.714;2022-07-23T07:45:20;101586.81;;;31.58;35.93
54266;BME280;40836;39.770;2.714;2022-07-23T07:47:47;101586.28;;;31.67;34.84
54266;BME280;40836;39.770;2.714;2022-07-23T07:50:12;101586.94;;;31.78;33.74
54266;BME280;40836;39.770;2.714;2022-07-23T07:52:38;101583.56;;;31.91;33.67
54266;BME280;40836;39.770;2.714;2022-07-23T07:55:06;101588.22;;;31.97;33.23
54266;BME280;40836;39.770;2.714;2022-07-23T07:57:32;101592.00;;;32.11;34.50
54266;BME280;40836;39.770;2.714;2022-07-23T07:59:58;101593.84;;;32.21;32.75
54266;BME280;40836;39.770;2.714;2022-07-23T08:02:24;101593.66;;;32.32;32.83
54266;BME280;40836;39.770;2.714;2022-07-23T08:04:49;101607.06;;;32.40;31.58
54266;BME280;40836;39.770;2.714;2022-07-23T08:07:15;101596.59;;;32.48;30.90
54266;BME280;40836;39.770;2.714;2022-07-23T08:09:41;101598.69;;;32.64;32.38
54266;BME280;40836;39.770;2.714;2022-07-23T08:12:07;101598.91;;;32.73;32.17
54266;BME280;40836;39.770;2.714;2022-07-23T08:14:32;101598.63;;;32.87;32.79
54266;BME280;40836;39.770;2.714;2022-07-23T08:16:58;101596.78;;;33.01;33.06
54266;BME280;40836;39.770;2.714;2022-07-23T08:19:24;101595.00;;;33.10;32.14
54266;BME280;40836;39.770;2.714;2022-07-23T08:21:49;101607.25;;;33.16;31.09
54266;BME280;40836;39.770;2.714;2022-07-23T08:24:15;101595.50;;;33.25;33.20
54266;BME280;40836;39.770;2.714;2022-07-23T08:26:40;101590.63;;;33.29;32.78
54266;BME280;40836;39.770;2.714;2022-07-23T08:29:06;101593.19;;;33.40;33.01
54266;BME280;40836;39.770;2.714;2022-07-23T08:31:31;101585.44;;;33.48;33.80
54266;BME280;40836;39.770;2.714;2022-07-23T08:33:59;101589.22;;;33.57;35.41
54266;BME280;40836;39.770;2.714;2022-07-23T08:36:24;101587.13;;;33.61;34.28
54266;BME280;40836;39.770;2.714;2022-07-23T08:38:53;101592.56;;;33.68;33.49
54266;BME280;40836;39.770;2.714;2022-07-23T08:41:19;101588.88;;;33.72;33.52
54266;BME280;40836;39.770;2.714;2022-07-23T08:43:45;101591.34;;;33.70;30.19
54266;BME280;40836;39.770;2.714;2022-07-23T08:46:12;101598.25;;;33.81;31.91
54266;BME280;40836;39.770;2.714;2022-07-23T08:48:47;101588.03;;;33.91;32.75
54266;BME280;40836;39.770;2.714;2022-07-23T08:51:14;101590.72;;;33.95;30.51
54266;BME280;40836;39.770;2.714;2022-07-23T08:53:40;101602.19;;;34.00;31.17
54266;BME280;40836;39.770;2.714;2022-07-23T08:56:07;101597.31;;;34.04;31.31
54266;BME280;40836;39.770;2.714;2022-07-23T08:58:33;101602.31;;;34.13;32.47
54266;BME280;40836;39.770;2.714;2022-07-23T09:01:00;101599.09;;;34.14;33.24
54266;BME280;40836;39.770;2.714;2022-07-23T09:03:30;101597.34;;;34.21;35.40
54266;BME280;40836;39.770;2.714;2022-07-23T09:05:58;101601.16;;;34.27;36.22
54266;BME280;40836;39.770;2.714;2022-07-23T09:08:40;101600.28;;;34.30;36.11
54266;BME280;40836;39.770;2.714;2022-07-23T09:11:08;101600.81;;;34.25;35.87
54266;BME280;40836;39.770;2.714;2022-07-23T09:16:18;101606.13;;;34.35;37.49
54266;BME280;40836;39.770;2.714;2022-07-23T09:18:51;101608.94;;;34.35;36.99
54266;BME280;40836;39.770;2.714;2022-07-23T09:26:26;101617.34;;;34.35;37.09
54266;BME280;40836;39.770;2.714;2022-07-23T09:29:25;101615.69;;;34.38;36.13
54266;BME280;40836;39.770;2.714;2022-07-23T09:31:59;101616.28;;;34.29;36.94
54266;BME280;40836;39.770;2.714;2022-07-23T09:34:26;101617.94;;;34.27;37.36
54266;BME280;40836;39.770;2.714;2022-07-23T09:37:18;101617.34;;;34.35;37.81
54266;BME280;40836;39.770;2.714;2022-07-23T09:39:45;101619.09;;;34.29;38.33
54266;BME280;40836;39.770;2.714;2022-07-23T09:42:15;101619.34;;;34.35;39.15
54266;BME280;40836;39.770;2.714;2022-07-23T09:44:48;101622.84;;;34.39;39.88
54266;BME280;40836;39.770;2.714;2022-07-23T09:47:14;101626.88;;;34.38;36.96
54266;BME280;40836;39.770;2.714;2022-07-23T09:49:40;101626.88;;;34.38;37.49
54266;BME280;40836;39.770;2.714;2022-07-23T09:52:06;101633.34;;;34.35;38.05
54266;BME280;40836;39.770;2.714;2022-07-23T09:54:37;101625.81;;;34.32;37.42
54266;BME280;40836;39.770;2.714;2022-07-23T09:57:04;101620.59;;;34.34;38.19
54266;BME280;40836;39.770;2.714;2022-07-23T09:59:33;101632.91;;;34.36;36.25
54266;BME280;40836;39.770;2.714;2022-07-23T10:02:00;101620.50;;;34.37;37.13
54266;BME280;40836;39.770;2.714;2022-07-23T10:04:29;101631.06;;;34.30;37.85
54266;BME280;40836;39.770;2.714;2022-07-23T10:06:57;101623.47;;;34.30;38.81
54266;BME280;40836;39.770;2.714;2022-07-23T10:09:30;101624.06;;;34.38;38.05
54266;BME280;40836;39.770;2.714;2022-07-23T10:12:03;101618.84;;;34.40;38.53
54266;BME280;40836;39.770;2.714;2022-07-23T10:14:44;101613.91;;;34.44;38.44
54266;BME280;40836;39.770;2.714;2022-07-23T10:17:10;101616.72;;;34.44;38.51
54266;BME280;40836;39.770;2.714;2022-07-23T10:19:36;101619.25;;;34.38;38.63
54266;BME280;40836;39.770;2.714;2022-07-23T10:22:04;101619.16;;;34.42;40.08
54266;BME280;40836;39.770;2.714;2022-07-23T10:33:27;101615.25;;;34.23;41.92
54266;BME280;40836;39.770;2.714;2022-07-23T10:36:21;101618.13;;;34.20;41.84
54266;BME280;40836;39.770;2.714;2022-07-23T10:41:36;101622.44;;;34.08;42.81
54266;BME280;40836;39.770;2.714;2022-07-23T10:44:15;101621.00;;;34.00;43.56
54266;BME280;40836;39.770;2.714;2022-07-23T10:46:56;101625.81;;;33.99;43.08
54266;BME280;40836;39.770;2.714;2022-07-23T10:49:34;101621.44;;;33.98;43.95
54266;BME280;40836;39.770;2.714;2022-07-23T10:54:48;101622.56;;;33.84;45.10
54266;BME280;40836;39.770;2.714;2022-07-23T10:57:18;101618.59;;;33.65;44.89
54266;BME280;40836;39.770;2.714;2022-07-23T11:02:34;101632.44;;;33.73;44.77
54266;BME280;40836;39.770;2.714;2022-07-23T11:05:10;101622.53;;;33.68;45.01
54266;BME280;40836;39.770;2.714;2022-07-23T11:10:39;101622.38;;;33.75;43.67
54266;BME280;40836;39.770;2.714;2022-07-23T11:13:27;101624.94;;;33.86;44.37
54266;BME280;40836;39.770;2.714;2022-07-23T11:26:53;101613.56;;;33.93;43.48
54266;BME280;40836;39.770;2.714;2022-07-23T11:32:22;101607.78;;;33.84;41.06
54266;BME280;40836;39.770;2.714;2022-07-23T11:34:50;101619.66;;;33.88;36.44
54266;BME280;40836;39.770;2.714;2022-07-23T11:37:35;101620.63;;;33.81;37.18
54266;BME280;40836;39.770;2.714;2022-07-23T11:40:04;101612.78;;;33.92;39.57
54266;BME280;40836;39.770;2.714;2022-07-23T11:42:32;101614.44;;;33.90;36.82
54266;BME280;40836;39.770;2.714;2022-07-23T11:44:57;101620.41;;;33.92;36.54
54266;BME280;40836;39.770;2.714;2022-07-23T11:47:24;101609.81;;;34.00;38.60
54266;BME280;40836;39.770;2.714;2022-07-23T11:49:59;101601.50;;;33.96;37.74
54266;BME280;40836;39.770;2.714;2022-07-23T11:52:26;101603.72;;;34.05;36.79
54266;BME280;40836;39.770;2.714;2022-07-23T11:57:33;101616.78;;;33.91;32.51
54266;BME280;40836;39.770;2.714;2022-07-23T12:02:32;101603.94;;;33.78;33.51
54266;BME280;40836;39.770;2.714;2022-07-23T12:04:57;101610.06;;;33.89;33.80
54266;BME280;40836;39.770;2.714;2022-07-23T12:07:34;101605.78;;;33.84;35.06
54266;BME280;40836;39.770;2.714;2022-07-23T12:10:15;101603.59;;;33.92;37.08
54266;BME280;40836;39.770;2.714;2022-07-23T12:12:53;101604.56;;;33.85;32.28
54266;BME280;40836;39.770;2.714;2022-07-23T12:15:41;101592.84;;;33.90;34.02
54266;BME280;40836;39.770;2.714;2022-07-23T12:18:09;101594.47;;;33.72;31.96
54266;BME280;40836;39.770;2.714;2022-07-23T12:20:41;101602.00;;;33.75;34.40
54266;BME280;40836;39.770;2.714;2022-07-23T12:23:09;101593.09;;;33.80;35.80
54266;BME280;40836;39.770;2.714;2022-07-23T12:25:40;101590.31;;;33.80;33.39
54266;BME280;40836;39.770;2.714;2022-07-23T12:30:38;101592.13;;;33.70;30.85
54266;BME280;40836;39.770;2.714;2022-07-23T12:33:04;101593.38;;;33.69;32.21
54266;BME280;40836;39.770;2.714;2022-07-23T12:35:44;101588.38;;;33.77;33.84
54266;BME280;40836;39.770;2.714;2022-07-23T12:38:12;101582.25;;;33.82;33.28
54266;BME280;40836;39.770;2.714;2022-07-23T12:40:45;101592.47;;;33.72;31.10
54266;BME280;40836;39.770;2.714;2022-07-23T12:43:19;101584.72;;;33.80;33.73
54266;BME280;40836;39.770;2.714;2022-07-23T12:48:28;101588.09;;;33.71;34.00
54266;BME280;40836;39.770;2.714;2022-07-23T12:51:07;101581.56;;;33.78;34.16
54266;BME280;40836;39.770;2.714;2022-07-23T12:53:40;101581.72;;;33.71;34.52
54266;BME280;40836;39.770;2.714;2022-07-23T12:58:41;101590.13;;;33.71;32.19
54266;BME280;40836;39.770;2.714;2022-07-23T13:01:08;101582.09;;;33.73;33.74
54266;BME280;40836;39.770;2.714;2022-07-23T13:03:35;101582.78;;;33.77;34.86
54266;BME280;40836;39.770;2.714;2022-07-23T13:06:03;101588.66;;;33.82;36.73
54266;BME280;40836;39.770;2.714;2022-07-23T13:08:30;101583.16;;;33.79;34.78
54266;BME280;40836;39.770;2.714;2022-07-23T13:10:56;101578.75;;;33.78;36.00
54266;BME280;40836;39.770;2.714;2022-07-23T13:13:28;101582.69;;;33.64;33.91
54266;BME280;40836;39.770;2.714;2022-07-23T13:15:54;101592.63;;;33.65;34.72
54266;BME280;40836;39.770;2.714;2022-07-23T13:18:20;101582.22;;;33.65;35.84
54266;BME280;40836;39.770;2.714;2022-07-23T13:20:47;101583.38;;;33.68;36.31
54266;BME280;40836;39.770;2.714;2022-07-23T13:23:13;101582.50;;;33.71;36.52
54266;BME280;40836;39.770;2.714;2022-07-23T13:25:39;101585.59;;;33.77;34.50
54266;BME280;40836;39.770;2.714;2022-07-23T13:28:04;101589.94;;;33.78;33.61
54266;BME280;40836;39.770;2.714;2022-07-23T13:30:30;101577.69;;;33.72;34.82
54266;BME280;40836;39.770;2.714;2022-07-23T13:32:55;101586.44;;;33.74;32.59
54266;BME280;40836;39.770;2.714;2022-07-23T13:35:21;101575.19;;;33.77;32.70
54266;BME280;40836;39.770;2.714;2022-07-23T13:37:47;101578.84;;;33.74;33.48
54266;BME280;40836;39.770;2.714;2022-07-23T13:40:12;101577.00;;;33.84;34.32
54266;BME280;40836;39.770;2.714;2022-07-23T13:42:38;101576.75;;;33.78;33.03
54266;BME280;40836;39.770;2.714;2022-07-23T13:45:05;101576.03;;;33.74;31.84
54266;BME280;40836;39.770;2.714;2022-07-23T13:47:31;101581.28;;;33.72;32.31